Time;durP1;ratioP1;P1;durP2;ratioP2;P2;SDS_P1;SDS_P2;PMS_P1;PMS_P2;Temp;Humidity;BMP_temperature;BMP_pressure;BME280_temperature;BME280_humidity;BME280_pressure;Samples;Min_cycle;Max_cycle;Signal;HPM_P1;HPM_P2
2023/04/01 00:04:09;;;;;;;4.00;1.40;;;11.40;95.80;;;;;;21163181;28;20262;-79
2023/04/01 00:14:11;;;;;;;4.63;1.40;;;11.40;95.50;;;;;;21161705;28;20658;-80
2023/04/01 00:24:13;;;;;;;2.93;1.20;;;11.40;95.30;;;;;;21168419;28;20204;-77
2023/04/01 00:34:15;;;;;;;2.80;1.20;;;11.40;95.10;;;;;;21176802;28;20237;-79
2023/04/01 00:44:32;;;;;;;4.57;1.20;;;11.30;94.90;;;;;;21176583;28;20213;-76
2023/04/01 00:54:35;;;;;;;2.03;1.10;;;11.40;95.00;;;;;;21176952;28;20232;-75
2023/04/01 01:04:37;;;;;;;5.23;1.57;;;11.40;94.90;;;;;;21195540;28;20283;-76
2023/04/01 01:15:21;;;;;;;2.60;1.23;;;11.40;94.80;;;;;;21176375;28;20236;-79
2023/04/01 01:25:50;;;;;;;3.17;1.20;;;11.40;94.60;;;;;;21173061;28;20208;-78
2023/04/01 01:35:55;;;;;;;2.30;1.20;;;11.40;94.50;;;;;;21171828;28;20233;-80
2023/04/01 01:46:06;;;;;;;3.47;1.13;;;11.40;94.40;;;;;;21153808;28;20250;-78
2023/04/01 01:56:12;;;;;;;1.90;1.00;;;11.30;94.30;;;;;;21170254;28;20230;-79
2023/04/01 02:06:17;;;;;;;4.20;1.00;;;11.40;94.30;;;;;;21169795;28;20205;-79
2023/04/01 02:16:42;;;;;;;3.80;1.23;;;11.40;94.20;;;;;;21169104;28;20305;-76
2023/04/01 02:26:45;;;;;;;3.57;1.30;;;11.30;94.10;;;;;;21138972;28;20209;-75
2023/04/01 02:36:49;;;;;;;3.37;1.33;;;11.30;94.20;;;;;;21166618;28;20236;-78
2023/04/01 02:46:51;;;;;;;4.03;1.40;;;11.30;94.00;;;;;;21166302;28;20574;-78
2023/04/01 02:56:52;;;;;;;1.80;1.13;;;11.30;94.00;;;;;;21165499;28;20628;-79
2023/04/01 03:06:55;;;;;;;5.73;1.50;;;11.30;93.90;;;;;;21164862;28;20218;-79
2023/04/01 03:16:56;;;;;;;3.40;1.30;;;11.30;93.80;;;;;;21163286;28;20242;-80
2023/04/01 03:26:58;;;;;;;2.97;1.20;;;11.40;93.70;;;;;;21163463;28;20233;-79
2023/04/01 03:37:00;;;;;;;4.77;1.50;;;11.30;93.60;;;;;;21162634;28;20309;-80
2023/04/01 03:47:02;;;;;;;5.03;1.13;;;11.20;93.70;;;;;;21163044;28;20203;-80
2023/04/01 03:57:04;;;;;;;3.83;1.73;;;11.20;93.80;;;;;;21165879;28;20226;-79
2023/04/01 04:07:06;;;;;;;2.07;1.23;;;11.20;93.80;;;;;;21179479;27;20204;-80
2023/04/01 04:17:15;;;;;;;3.07;1.20;;;11.30;93.90;;;;;;21179049;28;20284;-79
2023/04/01 04:27:17;;;;;;;2.50;1.30;;;11.30;93.80;;;;;;21177584;28;20731;-79
2023/04/01 04:37:19;;;;;;;3.10;1.40;;;11.40;93.70;;;;;;21177529;28;20234;-80
2023/04/01 04:47:20;;;;;;;2.17;1.10;;;11.40;93.70;;;;;;21190764;28;20531;-79
2023/04/01 04:57:22;;;;;;;6.40;2.47;;;11.30;93.80;;;;;;21197585;28;20227;-79
2023/04/01 05:07:24;;;;;;;1.77;1.00;;;11.20;94.10;;;;;;21174031;28;20222;-79
2023/04/01 05:17:25;;;;;;;3.40;1.00;;;11.10;94.20;;;;;;21173851;28;20289;-79
2023/04/01 05:27:27;;;;;;;3.17;0.90;;;11.10;94.30;;;;;;21172706;28;20214;-80
2023/04/01 05:51:22;;;;;;;3.13;1.30;;;11.10;94.10;;;;;;21068027;28;21107;-78
2023/04/01 06:01:24;;;;;;;4.13;1.10;;;11.20;94.00;;;;;;21067571;28;20200;-79
2023/04/01 06:12:00;;;;;;;2.83;1.07;;;11.30;93.90;;;;;;21066495;28;20208;-79
2023/04/01 06:41:22;;;;;;;3.03;1.30;;;11.40;93.60;;;;;;21068366;28;20682;-76
2023/04/01 06:51:59;;;;;;;4.40;1.30;;;11.60;93.50;;;;;;21023856;28;20237;-79
2023/04/01 07:02:04;;;;;;;3.20;1.10;;;11.80;93.30;;;;;;21067006;28;20212;-79
2023/04/01 07:12:33;;;;;;;2.33;1.10;;;11.90;93.10;;;;;;21065993;28;20228;-79
2023/04/01 07:22:40;;;;;;;3.10;0.90;;;12.00;93.00;;;;;;21064470;28;20211;-80
2023/04/01 07:33:11;;;;;;;4.27;1.30;;;12.10;92.90;;;;;;21064312;28;20337;-80
2023/04/01 07:43:51;;;;;;;2.80;1.10;;;12.10;92.90;;;;;;21056387;28;20207;-80
2023/04/01 07:54:40;;;;;;;1.90;0.73;;;12.40;92.60;;;;;;20962603;28;20285;-80
2023/04/01 08:05:27;;;;;;;2.10;0.93;;;12.40;92.50;;;;;;20888439;28;20660;-77
2023/04/01 08:20:30;;;;;;;13.37;9.43;;;12.50;92.80;;;;;;21238086;27;20562;-79
2023/04/01 08:30:52;;;;;;;1.93;0.93;;;12.60;93.10;;;;;;21249859;28;20217;-79
2023/04/01 08:41:07;;;;;;;0.87;0.70;;;12.30;93.50;;;;;;21260256;28;20212;-76
2023/04/01 08:51:09;;;;;;;2.10;0.77;;;;;;;;;;21235784;28;20224;-80
2023/04/01 09:01:41;;;;;;;1.83;0.80;;;12.30;94.40;;;;;;21235349;28;20213;-79
2023/04/01 09:14:35;;;;;;;1.37;0.80;;;12.50;94.40;;;;;;21069129;27;21154;-75
2023/04/01 09:25:03;;;;;;;1.37;0.70;;;12.70;94.50;;;;;;21067661;28;20213;-75
2023/04/01 09:35:14;;;;;;;0.90;0.70;;;12.80;94.40;;;;;;21066794;28;20559;-77
2023/04/01 09:45:42;;;;;;;5.20;4.10;;;13.00;94.60;;;;;;21066881;28;20311;-76
2023/04/01 09:56:14;;;;;;;4.30;3.10;;;13.00;94.50;;;;;;21064984;28;20681;-75
2023/04/01 10:07:47;;;;;;;1.17;1.00;;;12.90;94.20;;;;;;21068030;27;20560;-76
2023/04/01 10:18:17;;;;;;;1.67;0.90;;;13.30;94.30;;;;;;21067357;28;20231;-77
2023/04/01 10:29:00;;;;;;;2.07;1.00;;;13.20;94.20;;;;;;21066745;28;20208;-78
2023/04/01 10:39:40;;;;;;;2.10;1.90;;;13.20;94.40;;;;;;21065916;28;20241;-79
2023/04/01 10:50:10;;;;;;;1.13;0.90;;;13.30;94.70;;;;;;21064408;28;20236;-78
2023/04/01 11:00:39;;;;;;;0.80;0.70;;;13.30;94.70;;;;;;21064334;28;20714;-80
2023/04/01 11:11:01;;;;;;;1.30;0.80;;;13.40;95.10;;;;;;21053107;28;20217;-81
2023/04/01 11:21:35;;;;;;;0.70;0.70;;;13.40;95.20;;;;;;21006190;28;20240;-77
2023/04/01 11:31:55;;;;;;;2.47;0.80;;;13.00;95.80;;;;;;21006240;28;20262;-80
2023/04/01 11:42:00;;;;;;;1.27;0.70;;;13.00;96.30;;;;;;21005167;28;20281;-79
2023/04/01 11:52:22;;;;;;;0.97;0.83;;;12.90;96.70;;;;;;20972477;28;20206;-78
2023/04/01 12:03:06;;;;;;;6.17;2.83;;;13.20;96.80;;;;;;20923558;28;20291;-80
2023/04/01 12:13:30;;;;;;;1.40;1.00;;;13.20;97.00;;;;;;20958370;28;20196;-78
2023/04/01 12:24:08;;;;;;;0.80;0.80;;;13.30;97.00;;;;;;20971677;28;20236;-78
2023/04/01 12:34:10;;;;;;;7.20;5.60;;;13.40;97.20;;;;;;20926980;28;20215;-78
2023/04/01 12:49:47;;;;;;;3.37;2.40;;;13.90;97.20;;;;;;20985301;28;20635;-77
2023/04/01 13:00:04;;;;;;;0.70;0.70;;;13.80;97.10;;;;;;20983035;28;20289;-77
2023/04/01 13:12:18;;;;;;;0.73;0.73;;;13.70;97.20;;;;;;21068811;27;20653;-79
2023/04/01 13:22:51;;;;;;;1.03;0.80;;;13.50;97.60;;;;;;21067880;28;20567;-77
2023/04/01 13:33:01;;;;;;;1.03;0.90;;;13.50;97.80;;;;;;21067473;28;20641;-79
2023/04/01 13:43:15;;;;;;;0.73;0.73;;;13.50;97.70;;;;;;21067350;28;20219;-78
2023/04/01 13:53:51;;;;;;;0.87;0.80;;;13.40;98.10;;;;;;21065234;28;20682;-79
2023/04/01 14:04:20;;;;;;;1.30;0.90;;;13.70;97.80;;;;;;21063052;28;20233;-79
2023/04/01 14:14:36;;;;;;;2.23;0.90;;;13.30;97.90;;;;;;21057716;28;20296;-80
2023/04/01 14:24:50;;;;;;;0.90;0.90;;;13.10;98.20;;;;;;21007884;28;20322;-79
2023/04/01 14:35:17;;;;;;;1.37;0.80;;;13.70;98.10;;;;;;21005998;28;20242;-79
2023/04/01 14:45:36;;;;;;;0.80;0.80;;;13.70;97.80;;;;;;21005480;28;20214;-79
2023/04/01 14:55:38;;;;;;;0.83;0.83;;;13.40;98.10;;;;;;20944107;28;20592;-79
2023/04/01 15:05:51;;;;;;;2.10;1.60;;;13.60;98.10;;;;;;20920892;28;20264;-79
2023/04/01 15:16:06;;;;;;;1.07;1.00;;;13.60;98.20;;;;;;20920032;28;20228;-78
2023/04/01 15:26:40;;;;;;;1.27;1.00;;;13.60;98.10;;;;;;20918526;28;20302;-79
2023/04/01 15:36:52;;;;;;;0.87;0.87;;;13.50;97.90;;;;;;20918336;28;20231;-79
2023/04/01 15:46:55;;;;;;;1.07;1.00;;;;;;;;;;20918892;28;20203;-78
2023/04/01 15:57:02;;;;;;;1.20;1.10;;;13.00;98.70;;;;;;21021077;28;20256;-78
2023/04/01 16:07:41;;;;;;;2.03;1.30;;;13.00;98.80;;;;;;21060116;28;20234;-77
2023/04/01 16:17:54;;;;;;;1.43;1.33;;;12.90;98.90;;;;;;21018449;28;20231;-79
2023/04/01 16:28:22;;;;;;;1.40;1.23;;;12.80;98.90;;;;;;20998629;28;20204;-75
2023/04/01 16:38:29;;;;;;;1.20;1.10;;;12.70;98.90;;;;;;20996418;28;20227;-80
2023/04/01 16:49:03;;;;;;;1.53;1.17;;;12.50;99.20;;;;;;20995162;28;20217;-79
2023/04/01 16:59:27;;;;;;;2.37;1.20;;;12.40;99.20;;;;;;20913106;28;20698;-79
2023/04/01 17:09:56;;;;;;;1.10;1.00;;;12.40;99.40;;;;;;20912286;28;20236;-79
2023/04/01 17:20:32;;;;;;;1.70;1.40;;;12.30;99.40;;;;;;20912125;28;20237;-78
2023/04/01 17:30:42;;;;;;;1.37;1.10;;;12.30;99.40;;;;;;20912684;28;20211;-79
2023/04/01 17:41:16;;;;;;;3.00;1.30;;;12.10;99.50;;;;;;20911241;28;20764;-80
2023/04/01 17:51:26;;;;;;;1.73;1.23;;;12.10;99.40;;;;;;20938816;28;20646;-77
2023/04/01 18:05:34;;;;;;;1.37;1.10;;;12.00;99.60;;;;;;21067865;27;20561;-79
2023/04/01 18:15:52;;;;;;;2.53;1.30;;;11.90;99.60;;;;;;21067285;28;20303;-79
2023/04/01 18:26:05;;;;;;;1.87;1.23;;;11.80;99.50;;;;;;21066073;28;20216;-76
2023/04/01 18:36:35;;;;;;;14.03;9.60;;;11.80;99.50;;;;;;21066463;28;20234;-76
2023/04/01 18:47:02;;;;;;;1.47;1.20;;;11.80;99.60;;;;;;21066796;28;20202;-76
2023/04/01 19:00:26;;;;;;;1.50;1.40;;;11.80;99.60;;;;;;21155747;27;21001;-79
2023/04/01 19:13:53;;;;;;;1.80;1.40;;;11.80;99.50;;;;;;21067959;27;20577;-77
2023/04/01 19:24:10;;;;;;;1.87;1.30;;;11.70;99.50;;;;;;21065526;28;20228;-76
2023/04/01 19:34:35;;;;;;;2.23;1.47;;;11.70;99.50;;;;;;21076559;28;20212;-78
2023/04/01 20:03:10;;;;;;;1.20;1.10;;;11.60;99.30;;;;;;21068929;27;20663;-80
2023/04/01 20:13:36;;;;;;;2.70;1.60;;;11.50;99.20;;;;;;21066768;28;20229;-80
2023/04/01 20:29:37;;;;;;;1.30;1.20;;;11.50;99.20;;;;;;21067987;27;20929;-80
2023/04/01 20:39:52;;;;;;;2.37;1.30;;;11.50;99.10;;;;;;21066654;28;20566;-80
2023/04/01 20:50:56;;;;;;;1.37;1.20;;;11.40;99.10;;;;;;21067509;27;20570;-79
2023/04/01 21:01:30;;;;;;;1.40;1.30;;;11.40;99.10;;;;;;21065882;28;20232;-79
2023/04/01 21:11:53;;;;;;;1.40;1.20;;;11.30;99.10;;;;;;21066389;28;20668;-79
2023/04/01 21:22:27;;;;;;;1.10;1.00;;;11.30;99.10;;;;;;21064982;28;20292;-79
2023/04/01 21:33:06;;;;;;;2.07;1.23;;;11.30;99.10;;;;;;21064462;28;20258;-81
2023/04/01 21:50:21;;;;;;;1.23;1.10;;;11.10;99.10;;;;;;20984337;28;20924;-76
2023/04/01 22:00:38;;;;;;;2.00;1.23;;;11.10;99.10;;;;;;20956923;28;20239;-78
2023/04/01 22:10:45;;;;;;;2.83;1.30;;;11.00;99.10;;;;;;20982602;28;20264;-80
2023/04/01 22:21:04;;;;;;;3.00;1.40;;;11.00;99.20;;;;;;20981441;28;20245;-81
2023/04/01 22:31:11;;;;;;;1.70;1.27;;;11.00;99.10;;;;;;20980152;28;20251;-82
2023/04/01 22:41:13;;;;;;;1.80;1.23;;;;;;;;;;20980527;28;20582;-80
2023/04/01 22:51:44;;;;;;;3.93;1.50;;;11.10;99.20;;;;;;20953170;28;20205;-80
2023/04/01 23:01:55;;;;;;;1.40;1.30;;;11.20;99.20;;;;;;20841438;28;20269;-80
2023/04/01 23:12:07;;;;;;;2.73;1.33;;;11.20;99.10;;;;;;20843584;28;20209;-80
2023/04/01 23:22:35;;;;;;;1.40;1.17;;;11.20;99.00;;;;;;20899966;28;20241;-78
2023/04/01 23:32:37;;;;;;;1.60;1.30;;;11.30;99.10;;;;;;20839595;28;20338;-80
2023/04/01 23:48:50;;;;;;;2.67;1.40;;;11.40;99.10;;;;;;21323142;27;20286;-78
2023/04/01 23:58:55;;;;;;;6.17;1.43;;;11.40;99.20;;;;;;21236649;28;20205;-81
